createdAt,value
2018-06-18T00:02:06.082Z,9.90
2018-06-18T00:22:22.163Z,9.50
2018-06-18T00:24:52.150Z,9.97
2018-06-18T00:27:21.370Z,9.60
2018-06-18T00:29:50.602Z,8.60
2018-06-18T00:32:19.898Z,9.03
2018-06-18T00:34:49.230Z,9.53
2018-06-18T00:37:18.373Z,10.67
2018-06-18T00:39:47.627Z,10.00
2018-06-18T00:42:16.858Z,11.70
2018-06-18T00:44:47.751Z,9.93
2018-06-18T00:47:17.030Z,9.63
2018-06-18T00:49:46.821Z,10.40
2018-06-18T00:52:16.329Z,9.00
2018-06-18T00:54:46.220Z,10.43
2018-06-18T00:57:15.478Z,9.40
2018-06-18T00:59:44.849Z,9.17
2018-06-18T01:02:14.769Z,9.57
2018-06-18T01:04:43.928Z,9.50
2018-06-18T01:07:14.105Z,11.13
2018-06-18T01:09:43.320Z,9.17
2018-06-18T01:12:12.635Z,11.83
2018-06-18T01:14:42.038Z,10.80
2018-06-18T01:17:11.258Z,10.23
2018-06-18T01:19:40.602Z,10.47
2018-06-18T01:22:09.877Z,12.37
2018-06-18T01:24:45.800Z,10.27
2018-06-18T01:27:15.022Z,10.13
2018-06-18T01:29:44.301Z,9.37
2018-06-18T01:32:13.625Z,10.23
2018-06-18T01:34:42.902Z,9.53
2018-06-18T01:37:12.322Z,10.00
2018-06-18T01:39:41.573Z,9.50
2018-06-18T01:42:11.769Z,9.20
2018-06-18T01:44:40.983Z,8.57
2018-06-18T02:04:55.854Z,9.40
2018-06-18T02:07:25.160Z,10.07
2018-06-18T02:09:54.447Z,11.07
2018-06-18T02:12:24.686Z,9.80
2018-06-18T02:14:54.516Z,9.30
2018-06-18T02:17:25.101Z,8.73
2018-06-18T02:19:54.353Z,9.63
2018-06-18T02:22:23.593Z,10.03
2018-06-18T02:24:52.906Z,9.30
2018-06-18T02:27:22.084Z,9.97
2018-06-18T02:29:57.268Z,9.57
2018-06-18T02:32:31.963Z,11.33
2018-06-18T02:35:07.188Z,10.10
2018-06-18T02:37:41.709Z,9.60
2018-06-18T02:40:16.374Z,9.50
2018-06-18T02:42:45.633Z,9.43
2018-06-18T02:45:15.450Z,9.70
2018-06-18T02:47:45.468Z,10.03
2018-06-18T03:08:00.503Z,9.93
2018-06-18T03:10:31.023Z,11.13
2018-06-18T03:13:00.572Z,10.10
2018-06-18T03:15:29.890Z,10.57
2018-06-18T03:17:59.244Z,12.13
2018-06-18T03:20:34.180Z,10.40
2018-06-18T03:23:08.741Z,9.93
2018-06-18T03:25:43.473Z,13.47
2018-06-18T03:45:58.717Z,11.23
2018-06-18T04:06:19.980Z,10.83
2018-06-18T04:08:53.457Z,11.03
2018-06-18T04:11:28.814Z,11.03
2018-06-18T04:13:58.258Z,10.97
2018-06-18T04:16:28.801Z,11.20
2018-06-18T04:18:58.052Z,12.40
2018-06-18T04:21:27.436Z,10.70
2018-06-18T04:23:56.682Z,10.73
2018-06-18T04:26:26.518Z,10.57
2018-06-18T04:28:56.378Z,10.50
2018-06-18T04:31:25.776Z,10.67
2018-06-18T04:35:06.629Z,10.50
2018-06-18T04:37:35.904Z,10.73
2018-06-18T04:40:06.029Z,11.33
2018-06-18T04:42:41.726Z,11.23
2018-06-18T05:02:56.241Z,10.87
2018-06-18T05:23:15.884Z,10.60
2018-06-18T05:25:47.789Z,10.23
2018-06-18T05:28:17.787Z,11.27
2018-06-18T05:30:46.756Z,10.33
2018-06-18T05:33:15.962Z,10.37
2018-06-18T05:35:45.225Z,10.53
2018-06-18T05:38:20.931Z,10.27
2018-06-18T05:40:51.389Z,10.60
2018-06-18T05:43:21.286Z,11.50
2018-06-18T05:45:51.258Z,11.70
2018-06-18T05:48:21.059Z,10.87
2018-06-18T05:50:50.214Z,10.27
2018-06-18T05:53:20.258Z,12.23
2018-06-18T05:55:49.551Z,10.47
2018-06-18T05:58:18.830Z,11.47
2018-06-18T06:18:34.731Z,11.90
2018-06-18T06:21:07.522Z,11.23
2018-06-18T06:41:22.009Z,7.60
2018-06-18T06:43:52.044Z,8.23
2018-06-18T06:46:21.263Z,8.90
2018-06-18T06:48:50.453Z,8.63
2018-06-18T06:51:19.594Z,9.23
2018-06-18T07:11:34.421Z,8.10
2018-06-18T07:14:03.724Z,7.50
2018-06-18T07:16:33.323Z,7.30
2018-06-18T07:19:02.548Z,6.47
2018-06-18T07:39:19.072Z,5.67
2018-06-18T07:41:48.921Z,6.00
2018-06-18T07:44:18.165Z,8.87
2018-06-18T07:46:48.097Z,6.40
2018-06-18T07:49:17.467Z,6.80
2018-06-18T07:51:46.724Z,6.30
2018-06-18T07:54:15.911Z,7.13
2018-06-18T07:56:45.278Z,6.57
2018-06-18T07:59:14.486Z,6.50
2018-06-18T08:01:43.746Z,6.23
2018-06-18T08:04:12.998Z,8.03
2018-06-18T08:06:42.826Z,7.13
2018-06-18T08:09:14.351Z,8.07
2018-06-18T08:11:43.710Z,6.60
2018-06-18T08:14:14.162Z,7.87
2018-06-18T08:16:43.460Z,9.77
2018-06-18T08:19:13.803Z,6.87
2018-06-18T08:21:43.158Z,6.90
2018-06-18T08:24:12.499Z,6.57
2018-06-18T08:26:41.815Z,6.30
2018-06-18T08:29:11.409Z,6.50
2018-06-18T08:31:41.042Z,6.17
2018-06-18T08:34:10.697Z,6.13
2018-06-18T08:36:39.930Z,6.73
2018-06-18T08:39:10.492Z,6.50
2018-06-18T08:41:40.749Z,5.97
2018-06-18T08:44:10.055Z,5.73
2018-06-18T08:46:39.312Z,5.00
2018-06-18T08:49:10.118Z,6.03
2018-06-18T08:51:44.704Z,5.93
2018-06-18T08:54:19.379Z,5.23
2018-06-18T08:56:54.015Z,5.80
2018-06-18T09:00:30.804Z,5.87
2018-06-18T09:03:05.816Z,6.10
2018-06-18T09:05:45.154Z,5.20
2018-06-18T09:08:19.890Z,5.17
2018-06-18T09:10:49.061Z,5.20
2018-06-18T09:13:19.273Z,5.30
2018-06-18T09:15:50.175Z,5.07
2018-06-18T09:18:19.352Z,5.20
2018-06-18T09:20:48.673Z,5.30
2018-06-18T09:23:18.900Z,5.17
2018-06-18T09:25:53.446Z,4.90
2018-06-18T09:28:23.159Z,4.83
2018-06-18T09:30:52.525Z,4.47
2018-06-18T09:33:21.774Z,6.90
2018-06-18T09:35:51.445Z,4.53
2018-06-18T09:38:21.098Z,5.70
2018-06-18T09:40:50.344Z,5.03
2018-06-18T09:43:20.283Z,5.67
2018-06-18T09:45:50.330Z,5.07
2018-06-18T09:48:20.544Z,5.20
2018-06-18T09:50:55.090Z,7.70
2018-06-18T09:54:29.370Z,7.07
2018-06-18T09:57:03.847Z,5.67
2018-06-18T09:59:40.318Z,7.03
2018-06-18T10:02:10.811Z,6.43
2018-06-18T10:04:40.011Z,5.67
2018-06-18T10:07:09.291Z,5.37
2018-06-18T10:09:38.521Z,5.40
2018-06-18T10:12:09.534Z,5.30
2018-06-18T10:14:39.099Z,6.97
2018-06-18T10:34:59.059Z,5.23
2018-06-18T10:37:33.708Z,5.37
2018-06-18T10:40:08.546Z,5.70
2018-06-18T10:42:43.267Z,7.80
2018-06-18T10:45:12.539Z,5.00
2018-06-18T10:47:42.749Z,7.53
2018-06-18T10:50:12.182Z,5.13
2018-06-18T11:10:26.662Z,5.40
2018-06-18T11:12:56.205Z,5.20
2018-06-18T11:15:25.428Z,4.83
2018-06-18T11:18:00.254Z,5.30
2018-06-18T11:38:14.797Z,4.63
2018-06-18T11:40:44.212Z,4.40
2018-06-18T12:01:03.956Z,3.67
2018-06-18T12:03:38.514Z,5.90
2018-06-18T12:06:13.120Z,6.10
2018-06-18T12:08:48.537Z,4.60
2018-06-18T12:11:17.926Z,4.20
2018-06-18T12:13:48.258Z,4.63
2018-06-18T12:16:17.595Z,4.10
2018-06-18T12:18:47.346Z,3.90
2018-06-18T12:21:16.528Z,4.33
2018-06-18T12:23:45.769Z,4.20
2018-06-18T12:26:15.055Z,5.20
2018-06-18T12:28:44.267Z,3.80
2018-06-18T12:31:13.654Z,3.93
2018-06-18T12:33:42.959Z,4.60
2018-06-18T12:36:13.627Z,5.23
2018-06-18T12:38:43.956Z,3.60
2018-06-18T12:41:17.891Z,4.10
2018-06-18T12:43:49.650Z,4.20
2018-06-18T12:46:24.180Z,3.30
2018-06-18T12:48:58.829Z,3.53
2018-06-18T13:09:15.422Z,4.27
2018-06-18T13:11:44.689Z,3.70
2018-06-18T13:14:14.044Z,3.80
2018-06-18T13:16:43.300Z,3.67
2018-06-18T13:19:12.724Z,2.97
2018-06-18T13:21:41.980Z,3.30
2018-06-18T13:42:02.214Z,3.20
2018-06-18T13:44:36.835Z,4.67
2018-06-18T13:47:11.372Z,3.13
2018-06-18T13:49:45.986Z,3.10
2018-06-18T13:52:15.942Z,3.00
2018-06-18T13:54:45.705Z,3.20
2018-06-18T13:57:14.907Z,3.23
2018-06-18T14:17:30.263Z,3.80
2018-06-18T14:20:05.626Z,3.10
2018-06-18T14:22:34.970Z,2.97
2018-06-18T14:42:49.438Z,5.67
2018-06-18T15:03:04.783Z,2.40
2018-06-18T15:23:20.049Z,2.42
2018-06-18T15:25:50.771Z,3.47
2018-06-18T15:46:05.530Z,2.73
2018-06-18T16:06:20.120Z,2.70
2018-06-18T16:08:50.032Z,2.60
2018-06-18T16:29:05.981Z,2.50
2018-06-18T16:49:21.595Z,3.73
2018-06-18T16:51:50.820Z,2.93
2018-06-18T16:54:20.190Z,2.67
2018-06-18T16:56:50.175Z,3.00
2018-06-18T16:59:20.826Z,3.30
2018-06-18T17:01:50.157Z,2.83
2018-06-18T17:04:19.424Z,2.70
2018-06-18T17:06:49.285Z,2.70
2018-06-18T17:09:18.698Z,3.20
2018-06-18T17:11:47.989Z,2.83
2018-06-18T17:14:17.500Z,2.67
2018-06-18T17:16:46.799Z,3.00
2018-06-18T17:19:15.994Z,3.10
2018-06-18T17:39:30.962Z,3.00
2018-06-18T17:42:00.546Z,2.70
2018-06-18T17:44:29.885Z,4.00
2018-06-18T18:04:44.634Z,2.60
2018-06-18T18:07:15.500Z,2.97
2018-06-18T18:09:44.929Z,3.67
2018-06-18T18:12:14.105Z,2.93
2018-06-18T18:32:28.793Z,4.17
2018-06-18T18:34:58.193Z,4.17
2018-06-18T18:37:28.370Z,4.67
2018-06-18T18:57:55.734Z,4.00
2018-06-18T19:00:25.012Z,3.73
2018-06-18T19:20:45.509Z,5.97
2018-06-18T19:23:14.694Z,3.27
2018-06-18T19:25:44.397Z,3.03
2018-06-18T19:28:13.565Z,2.90
2018-06-18T19:30:45.402Z,2.93
2018-06-18T19:51:01.877Z,4.50
2018-06-18T20:11:18.294Z,3.30
2018-06-18T20:31:34.017Z,3.40
2018-06-18T20:34:03.410Z,3.43
2018-06-18T20:36:32.710Z,3.43
2018-06-18T20:39:02.405Z,3.77
2018-06-18T20:41:31.721Z,3.73
2018-06-18T20:44:10.838Z,3.70
2018-06-18T20:46:41.138Z,3.03
2018-06-18T20:49:12.530Z,4.10
2018-06-18T21:09:27.241Z,3.83
2018-06-18T21:11:56.549Z,3.73
2018-06-18T21:14:27.180Z,3.87
2018-06-18T21:16:56.540Z,4.20
2018-06-18T21:19:25.758Z,3.90
2018-06-18T21:39:40.274Z,3.93
2018-06-18T21:42:09.486Z,6.30
2018-06-18T21:44:43.390Z,5.10
2018-06-18T21:47:12.719Z,4.00
2018-06-18T21:49:42.593Z,4.30
2018-06-18T21:52:11.838Z,4.30
2018-06-18T21:54:41.098Z,4.47
2018-06-18T21:57:09.984Z,4.13
2018-06-18T21:59:39.175Z,4.90
2018-06-18T22:02:08.691Z,4.20
2018-06-18T22:04:37.987Z,4.13
2018-06-18T22:07:07.295Z,4.77
2018-06-18T22:27:24.593Z,4.10
2018-06-18T22:47:40.214Z,4.63
2018-06-18T22:50:10.548Z,5.77
2018-06-18T22:52:39.790Z,4.40
2018-06-18T22:55:09.092Z,4.60
2018-06-18T22:57:38.454Z,4.80
2018-06-18T23:00:07.847Z,4.73
2018-06-18T23:02:37.091Z,4.30
2018-06-18T23:05:06.338Z,4.83
2018-06-18T23:07:35.545Z,5.13
2018-06-18T23:10:04.798Z,5.07
2018-06-18T23:12:38.581Z,4.60
2018-06-18T23:15:09.463Z,4.70
2018-06-18T23:17:39.077Z,5.03
2018-06-18T23:20:08.313Z,4.90
2018-06-18T23:22:38.267Z,4.67
2018-06-18T23:25:07.958Z,5.10
2018-06-18T23:27:37.686Z,4.70
2018-06-18T23:30:07.103Z,4.87
2018-06-18T23:32:36.398Z,4.77
2018-06-18T23:35:05.866Z,6.83
2018-06-18T23:37:35.174Z,5.47
2018-06-18T23:40:04.653Z,4.97
2018-06-18T23:42:34.060Z,4.53
2018-06-18T23:45:03.345Z,4.73
2018-06-18T23:47:32.786Z,4.77
2018-06-18T23:50:02.049Z,4.80
2018-06-18T23:52:31.225Z,4.93
2018-06-18T23:55:00.465Z,4.40
2018-06-18T23:57:29.767Z,4.80
